createdAt,value
2016-09-22T00:00:37.669Z,0
2016-09-22T00:01:47.347Z,0
2016-09-22T00:02:57.636Z,0
2016-09-22T00:04:07.291Z,0
2016-09-22T00:05:16.360Z,0
2016-09-22T00:06:26.638Z,0
2016-09-22T00:07:36.307Z,0
2016-09-22T00:08:46.292Z,0
2016-09-22T00:09:56.601Z,0
2016-09-22T00:11:06.905Z,0
2016-09-22T00:12:16.882Z,0
2016-09-22T00:13:26.544Z,0
2016-09-22T00:14:36.836Z,0
2016-09-22T00:15:47.127Z,0
2016-09-22T00:16:57.422Z,0
2016-09-22T00:18:07.706Z,0
2016-09-22T00:19:17.376Z,0
2016-09-22T00:20:27.657Z,0
2016-09-22T00:21:37.950Z,0
2016-09-22T00:22:47.617Z,0
2016-09-22T00:23:57.597Z,0
2016-09-22T00:25:07.583Z,0
2016-09-22T00:26:17.570Z,0
2016-09-22T00:27:27.904Z,0
2016-09-22T00:28:37.585Z,0
2016-09-22T00:29:47.565Z,0
2016-09-22T00:30:57.879Z,0
2016-09-22T00:32:08.169Z,0
2016-09-22T00:33:18.155Z,0
2016-09-22T00:34:28.146Z,0
2016-09-22T00:35:38.120Z,0
2016-09-22T00:36:48.415Z,0
2016-09-22T00:37:58.719Z,0
2016-09-22T00:39:08.691Z,0
2016-09-22T00:40:18.660Z,0
2016-09-22T00:41:28.963Z,0
2016-09-22T00:42:39.248Z,0
2016-09-22T00:43:49.531Z,0
2016-09-22T00:44:59.539Z,0
2016-09-22T00:46:09.209Z,0
2016-09-22T00:47:19.179Z,0
2016-09-22T00:48:29.174Z,0
2016-09-22T00:49:39.170Z,0
2016-09-22T00:50:49.145Z,0
2016-09-22T00:51:59.127Z,0
2016-09-22T00:53:08.811Z,0
2016-09-22T00:54:18.498Z,0
2016-09-22T00:55:28.799Z,0
2016-09-22T00:56:38.775Z,0
2016-09-22T00:57:49.076Z,0
2016-09-22T00:58:59.353Z,0
2016-09-22T01:00:09.660Z,0
2016-09-22T01:01:19.635Z,0
2016-09-22T01:02:59.314Z,0
2016-09-22T01:04:09.601Z,0
2016-09-22T01:05:19.592Z,0
2016-09-22T01:06:29.582Z,0
2016-09-22T01:07:39.870Z,0
2016-09-22T01:08:49.862Z,0
2016-09-22T01:10:00.163Z,0
2016-09-22T01:11:10.145Z,0
2016-09-22T01:12:20.437Z,0
2016-09-22T01:13:30.734Z,0
2016-09-22T01:14:40.420Z,0
2016-09-22T01:15:50.396Z,0
2016-09-22T01:17:00.110Z,0
2016-09-22T01:18:10.401Z,0
2016-09-22T01:19:20.686Z,0
2016-09-22T01:20:30.664Z,0
2016-09-22T01:21:40.950Z,0
2016-09-22T01:22:50.946Z,0
2016-09-22T01:24:00.916Z,0
2016-09-22T01:25:11.207Z,0
2016-09-22T01:26:21.183Z,0
2016-09-22T01:27:31.485Z,0
2016-09-22T01:28:41.765Z,0
2016-09-22T01:29:51.436Z,0
2016-09-22T01:31:01.722Z,0
2016-09-22T01:32:11.386Z,0
2016-09-22T01:33:21.358Z,0
2016-09-22T01:34:31.652Z,0
2016-09-22T01:35:41.375Z,0
2016-09-22T01:36:51.347Z,0
2016-09-22T01:38:01.013Z,0
2016-09-22T01:39:11.315Z,0
2016-09-22T01:40:21.296Z,0
2016-09-22T01:41:31.587Z,0
2016-09-22T01:42:41.553Z,0
2016-09-22T01:43:51.842Z,0
2016-09-22T01:45:01.823Z,0
2016-09-22T01:46:11.815Z,0
2016-09-22T01:47:21.782Z,0
2016-09-22T01:48:31.767Z,0
2016-09-22T01:49:42.044Z,0
2016-09-22T01:50:52.022Z,0
2016-09-22T01:52:02.320Z,0
2016-09-22T01:53:12.305Z,0
2016-09-22T01:54:22.593Z,0
2016-09-22T01:55:32.878Z,0
2016-09-22T01:56:43.160Z,0
2016-09-22T01:57:53.427Z,0
2016-09-22T01:59:03.408Z,0
2016-09-22T02:00:13.372Z,0
2016-09-22T02:01:23.371Z,0
2016-09-22T02:02:33.349Z,0
2016-09-22T02:03:43.325Z,0
2016-09-22T02:04:52.682Z,0
2016-09-22T02:06:02.667Z,0
2016-09-22T02:07:12.644Z,0
2016-09-22T02:08:22.326Z,0
2016-09-22T02:09:32.610Z,0
2016-09-22T02:10:42.290Z,0
2016-09-22T02:11:52.570Z,0
2016-09-22T02:13:02.851Z,0
2016-09-22T02:14:12.514Z,0
2016-09-22T02:15:22.807Z,0
2016-09-22T02:16:33.099Z,0
2016-09-22T02:17:43.387Z,0
2016-09-22T02:18:53.943Z,0
2016-09-22T02:20:04.224Z,0
2016-09-22T02:21:14.204Z,0
2016-09-22T02:22:24.512Z,0
2016-09-22T02:23:34.489Z,0
2016-09-22T02:24:44.464Z,0
2016-09-22T02:25:54.446Z,0
2016-09-22T02:27:04.419Z,0
2016-09-22T02:28:14.722Z,0
2016-09-22T02:29:24.081Z,0
2016-09-22T02:30:34.372Z,0
2016-09-22T02:31:44.660Z,0
2016-09-22T02:32:54.328Z,0
2016-09-22T02:34:03.993Z,0
2016-09-22T02:35:14.288Z,0
2016-09-22T02:36:23.948Z,0
2016-09-22T02:37:33.920Z,0
2016-09-22T02:38:43.885Z,0
2016-09-22T02:39:53.558Z,0
2016-09-22T02:41:03.532Z,0
2016-09-22T02:42:13.831Z,0
2016-09-22T02:43:23.826Z,0
2016-09-22T02:44:33.799Z,0
2016-09-22T02:45:43.776Z,0
2016-09-22T02:46:54.067Z,0
2016-09-22T02:48:03.745Z,0
2016-09-22T02:49:14.036Z,0
2016-09-22T02:50:24.317Z,0
2016-09-22T02:51:34.598Z,0
2016-09-22T02:52:44.891Z,0
2016-09-22T02:53:54.867Z,0
2016-09-22T02:55:04.837Z,0
2016-09-22T02:56:14.511Z,0
2016-09-22T02:57:24.496Z,0
2016-09-22T02:58:34.167Z,0
2016-09-22T02:59:44.453Z,0
2016-09-22T03:00:54.740Z,0
2016-09-22T03:32:45.846Z,0
2016-09-22T03:33:56.129Z,0
2016-09-22T03:35:06.104Z,0
2016-09-22T03:36:16.384Z,0
2016-09-22T03:37:26.594Z,0
2016-09-22T03:38:36.882Z,0
2016-09-22T03:39:47.173Z,0
2016-09-22T03:40:56.855Z,0
2016-09-22T03:42:06.829Z,0
2016-09-22T03:43:16.499Z,0
2016-09-22T03:44:26.479Z,0
2016-09-22T03:45:36.460Z,0
2016-09-22T03:46:46.435Z,0
2016-09-22T03:47:56.728Z,0
2016-09-22T03:49:07.009Z,0
2016-09-22T03:50:17.290Z,0
2016-09-22T03:51:27.572Z,0
2016-09-22T03:52:37.867Z,0
2016-09-22T03:53:47.842Z,0
2016-09-22T03:54:57.816Z,0
2016-09-22T03:56:07.476Z,0
2016-09-22T03:57:17.759Z,0
2016-09-22T03:58:27.741Z,0
2016-09-22T03:59:37.093Z,0
2016-09-22T04:00:46.757Z,0
2016-09-22T04:01:57.062Z,0
2016-09-22T04:03:07.043Z,0
2016-09-22T04:04:17.009Z,0
2016-09-22T04:05:26.978Z,0
2016-09-22T04:06:36.642Z,0
2016-09-22T04:07:46.914Z,0
2016-09-22T04:08:56.890Z,0
2016-09-22T04:10:06.863Z,0
2016-09-22T04:11:17.149Z,0
2016-09-22T04:12:27.440Z,0
2016-09-22T04:13:37.418Z,0
2016-09-22T04:14:47.388Z,0
2016-09-22T04:15:57.665Z,0
2016-09-22T04:17:07.321Z,0
2016-09-22T04:18:17.297Z,0
2016-09-22T04:19:27.575Z,0
2016-09-22T04:20:37.248Z,0
2016-09-22T04:21:47.548Z,0
2016-09-22T04:22:57.524Z,0
2016-09-22T04:24:07.806Z,0
2016-09-22T04:25:17.478Z,0
2016-09-22T04:26:27.153Z,0
2016-09-22T04:27:37.435Z,0
2016-09-22T04:28:47.413Z,0
2016-09-22T04:29:57.723Z,0
2016-09-22T04:31:08.014Z,0
2016-09-22T04:32:17.978Z,0
2016-09-22T04:33:27.659Z,0
2016-09-22T04:34:37.614Z,0
2016-09-22T04:35:47.600Z,0
2016-09-22T04:36:57.283Z,0
2016-09-22T04:38:06.948Z,0
2016-09-22T04:39:17.246Z,0
2016-09-22T04:40:26.922Z,0
2016-09-22T04:41:36.889Z,0
2016-09-22T04:42:46.876Z,5
2016-09-22T04:43:56.862Z,5
2016-09-22T04:45:07.164Z,5
2016-09-22T04:46:17.435Z,5
2016-09-22T04:47:26.798Z,5
2016-09-22T04:48:36.768Z,5
2016-09-22T04:49:46.436Z,5
2016-09-22T04:50:56.729Z,10
2016-09-22T04:52:07.034Z,10
2016-09-22T04:53:17.341Z,10
2016-09-22T04:54:27.012Z,10
2016-09-22T04:55:36.994Z,10
2016-09-22T04:56:47.280Z,10
2016-09-22T04:57:57.561Z,15
2016-09-22T04:59:07.228Z,15
2016-09-22T05:00:17.520Z,15
2016-09-22T05:01:27.806Z,20
2016-09-22T05:02:38.098Z,20
2016-09-22T05:03:48.408Z,20
2016-09-22T05:04:58.706Z,25
2016-09-22T05:06:08.678Z,25
2016-09-22T05:07:18.970Z,25
2016-09-22T05:08:28.935Z,25
2016-09-22T05:09:38.621Z,25
2016-09-22T05:10:48.914Z,30
2016-09-22T05:11:59.208Z,30
2016-09-22T05:13:09.192Z,30
2016-09-22T05:14:19.175Z,30
2016-09-22T05:15:28.846Z,30
2016-09-22T05:16:38.822Z,30
2016-09-22T05:17:48.820Z,30
2016-09-22T05:18:58.786Z,30
2016-09-22T05:20:08.147Z,35
2016-09-22T05:21:18.430Z,35
2016-09-22T05:22:28.432Z,35
2016-09-22T05:23:38.414Z,40
2016-09-22T05:24:48.087Z,40
2016-09-22T05:25:57.758Z,45
2016-09-22T05:27:08.060Z,45
2016-09-22T05:28:17.741Z,45
2016-09-22T05:29:28.017Z,50
2016-09-22T05:30:38.300Z,50
2016-09-22T05:31:48.591Z,50
2016-09-22T05:32:58.567Z,50
2016-09-22T05:34:08.560Z,55
2016-09-22T05:35:17.926Z,55
2016-09-22T05:36:27.593Z,55
2016-09-22T05:37:37.575Z,55
2016-09-22T05:38:47.870Z,60
2016-09-22T05:39:57.864Z,60
2016-09-22T05:41:08.150Z,70
2016-09-22T05:42:18.447Z,65
2016-09-22T05:43:28.735Z,70
2016-09-22T05:44:39.025Z,75
2016-09-22T05:45:49.303Z,70
2016-09-22T05:46:59.586Z,75
2016-09-22T05:48:09.884Z,80
2016-09-22T05:49:20.193Z,80
2016-09-22T05:50:30.464Z,85
2016-09-22T05:51:40.451Z,90
2016-09-22T05:52:50.427Z,90
2016-09-22T05:54:00.409Z,95
2016-09-22T05:55:10.703Z,95
2016-09-22T05:56:20.683Z,105
2016-09-22T05:57:30.666Z,110
2016-09-22T05:58:40.958Z,115
2016-09-22T05:59:51.234Z,115
2016-09-22T06:01:01.205Z,120
2016-09-22T06:02:11.180Z,125
2016-09-22T06:03:21.474Z,125
2016-09-22T06:04:30.846Z,125
2016-09-22T06:05:40.516Z,125
2016-09-22T06:06:50.194Z,125
2016-09-22T06:08:00.172Z,125
2016-09-22T06:09:10.463Z,120
2016-09-22T06:10:20.441Z,120
2016-09-22T06:11:30.729Z,120
2016-09-22T06:12:40.698Z,120
2016-09-22T06:13:50.375Z,125
2016-09-22T06:15:00.670Z,125
2016-09-22T06:16:10.958Z,125
2016-09-22T06:17:20.934Z,125
2016-09-22T06:18:30.640Z,125
2016-09-22T06:19:40.920Z,125
2016-09-22T06:20:50.271Z,120
2016-09-22T06:22:00.256Z,120
2016-09-22T06:23:09.925Z,125
2016-09-22T06:24:20.209Z,125
2016-09-22T06:25:30.202Z,120
2016-09-22T06:26:39.865Z,115
2016-09-22T06:27:49.544Z,120
2016-09-22T06:28:59.536Z,120
2016-09-22T06:30:09.509Z,125
2016-09-22T06:31:19.185Z,145
2016-09-22T06:32:29.484Z,145
2016-09-22T06:33:39.786Z,145
2016-09-22T06:34:50.093Z,135
2016-09-22T06:36:00.382Z,120
2016-09-22T06:37:10.668Z,115
2016-09-22T06:38:20.943Z,115
2016-09-22T06:39:31.209Z,110
2016-09-22T06:40:41.498Z,105
2016-09-22T06:41:51.474Z,100
2016-09-22T06:43:01.477Z,95
2016-09-22T06:44:11.147Z,105
2016-09-22T06:45:21.130Z,105
2016-09-22T06:46:31.416Z,110
2016-09-22T06:47:41.094Z,120
2016-09-22T06:48:51.387Z,145
2016-09-22T06:50:01.060Z,140
2016-09-22T06:51:10.731Z,135
2016-09-22T06:52:21.019Z,135
2016-09-22T06:53:31.306Z,130
2016-09-22T06:54:41.593Z,140
2016-09-22T06:55:51.569Z,130
2016-09-22T06:57:01.546Z,130
2016-09-22T06:58:11.840Z,135
2016-09-22T06:59:22.114Z,145
2016-09-22T07:00:31.777Z,145
2016-09-22T07:01:41.458Z,140
2016-09-22T07:02:51.756Z,140
2016-09-22T07:04:01.740Z,145
2016-09-22T07:05:12.031Z,145
2016-09-22T07:06:22.004Z,145
2016-09-22T07:07:31.738Z,145
2016-09-22T07:08:42.047Z,145
2016-09-22T07:09:52.361Z,150
2016-09-22T07:11:02.347Z,150
2016-09-22T07:12:11.717Z,150
2016-09-22T07:13:22.020Z,150
2016-09-22T07:14:32.016Z,150
2016-09-22T07:15:42.309Z,155
2016-09-22T07:16:52.593Z,155
2016-09-22T07:18:02.586Z,155
2016-09-22T07:19:12.879Z,150
2016-09-22T07:20:23.174Z,155
2016-09-22T07:21:33.173Z,155
2016-09-22T07:22:42.854Z,155
2016-09-22T07:23:53.142Z,155
2016-09-22T07:25:03.427Z,155
2016-09-22T07:26:13.730Z,155
2016-09-22T07:27:23.086Z,160
2016-09-22T07:28:33.062Z,160
2016-09-22T07:29:43.355Z,160
2016-09-22T07:30:52.733Z,160
2016-09-22T07:32:02.723Z,160
2016-09-22T07:33:12.706Z,160
2016-09-22T07:34:22.682Z,160
2016-09-22T07:35:32.358Z,165
2016-09-22T07:36:42.371Z,165
2016-09-22T07:37:52.653Z,165
2016-09-22T07:39:02.629Z,165
2016-09-22T07:40:12.608Z,165
2016-09-22T07:41:22.600Z,170
2016-09-22T07:42:32.578Z,170
2016-09-22T07:43:42.565Z,170
2016-09-22T07:44:52.868Z,175
2016-09-22T07:46:02.875Z,175
2016-09-22T07:47:12.861Z,170
2016-09-22T07:48:22.527Z,170
2016-09-22T07:49:32.515Z,175
2016-09-22T07:50:42.177Z,175
2016-09-22T07:51:51.833Z,175
2016-09-22T07:53:01.816Z,175
2016-09-22T07:54:12.099Z,180
2016-09-22T07:55:22.409Z,180
2016-09-22T07:56:32.082Z,180
2016-09-22T07:57:42.073Z,180
2016-09-22T07:58:52.373Z,180
2016-09-22T08:00:02.677Z,185
2016-09-22T08:01:12.978Z,180
2016-09-22T08:02:23.269Z,180
2016-09-22T08:03:33.256Z,180
2016-09-22T08:04:43.544Z,180
2016-09-22T08:05:53.831Z,180
2016-09-22T08:07:04.111Z,185
2016-09-22T08:08:14.423Z,180
2016-09-22T08:09:24.398Z,185
2016-09-22T08:10:34.408Z,185
2016-09-22T08:11:44.708Z,185
2016-09-22T08:12:55.010Z,185
2016-09-22T08:14:04.681Z,185
2016-09-22T08:15:14.660Z,185
2016-09-22T08:16:24.933Z,190
2016-09-22T08:17:34.604Z,190
2016-09-22T08:18:44.908Z,190
2016-09-22T08:19:55.204Z,190
2016-09-22T08:21:05.477Z,190
2016-09-22T08:22:15.763Z,190
2016-09-22T08:23:25.739Z,195
2016-09-22T08:24:35.731Z,195
2016-09-22T08:25:46.038Z,200
2016-09-22T08:26:56.345Z,195
2016-09-22T08:28:06.337Z,195
2016-09-22T08:29:16.314Z,195
2016-09-22T08:30:26.621Z,200
2016-09-22T08:31:36.902Z,195
2016-09-22T08:32:47.198Z,195
2016-09-22T08:33:57.495Z,200
2016-09-22T08:35:07.789Z,195
2016-09-22T08:36:17.781Z,195
2016-09-22T08:37:28.077Z,195
2016-09-22T08:38:38.060Z,200
2016-09-22T08:39:48.356Z,200
2016-09-22T08:40:58.332Z,200
2016-09-22T08:42:08.657Z,200
2016-09-22T08:43:18.966Z,205
2016-09-22T08:44:28.648Z,205
2016-09-22T08:45:38.932Z,205
2016-09-22T08:46:48.916Z,205
2016-09-22T08:47:58.903Z,210
2016-09-22T08:49:08.265Z,210
2016-09-22T08:50:18.275Z,210
2016-09-22T08:51:28.587Z,205
2016-09-22T08:52:38.584Z,210
2016-09-22T08:53:48.939Z,210
2016-09-22T08:54:58.613Z,210
2016-09-22T08:56:07.985Z,210
2016-09-22T08:57:17.341Z,210
2016-09-22T08:58:27.338Z,215
2016-09-22T08:59:37.345Z,215
2016-09-22T09:00:47.016Z,215
2016-09-22T09:01:56.383Z,215
2016-09-22T09:03:06.705Z,215
2016-09-22T09:04:17.052Z,215
2016-09-22T09:05:27.333Z,215
2016-09-22T09:06:37.317Z,215
2016-09-22T09:07:47.607Z,215
2016-09-22T09:08:57.594Z,215
2016-09-22T09:10:07.607Z,215
2016-09-22T09:11:17.601Z,220
2016-09-22T09:12:27.584Z,220
2016-09-22T09:13:37.569Z,220
2016-09-22T09:14:47.857Z,220
2016-09-22T09:15:57.528Z,225
2016-09-22T09:17:07.214Z,225
2016-09-22T09:18:17.496Z,225
2016-09-22T09:19:27.793Z,225
2016-09-22T09:20:37.777Z,230
2016-09-22T09:21:48.087Z,230
2016-09-22T09:22:58.067Z,230
2016-09-22T09:24:08.041Z,230
2016-09-22T09:25:17.723Z,230
2016-09-22T09:26:28.018Z,230
2016-09-22T09:27:37.991Z,230
2016-09-22T09:28:48.283Z,230
2016-09-22T09:29:58.590Z,230
2016-09-22T09:31:08.876Z,230
2016-09-22T09:32:19.207Z,230
2016-09-22T09:33:29.218Z,235
2016-09-22T09:34:39.215Z,235
2016-09-22T09:35:48.901Z,240
2016-09-22T09:36:59.179Z,245
2016-09-22T09:38:08.855Z,250
2016-09-22T09:39:18.846Z,260
2016-09-22T09:40:28.844Z,260
2016-09-22T09:41:38.839Z,260
2016-09-22T09:42:48.819Z,265
2016-09-22T09:43:59.103Z,265
2016-09-22T09:45:09.398Z,270
2016-09-22T09:46:19.689Z,270
2016-09-22T09:47:29.678Z,275
2016-09-22T09:48:39.973Z,270
2016-09-22T09:49:49.335Z,270
2016-09-22T09:50:59.017Z,270
2016-09-22T09:52:09.011Z,165
2016-09-22T09:53:18.997Z,190
2016-09-22T09:54:29.001Z,165
2016-09-22T09:55:39.329Z,160
2016-09-22T09:56:49.636Z,140
2016-09-22T09:57:59.926Z,140
2016-09-22T09:59:09.605Z,260
2016-09-22T10:00:19.586Z,265
2016-09-22T10:01:29.877Z,260
2016-09-22T10:02:39.869Z,265
2016-09-22T10:03:49.855Z,265
2016-09-22T10:05:00.148Z,265
2016-09-22T10:06:10.444Z,265
2016-09-22T10:07:20.111Z,265
2016-09-22T10:08:30.121Z,265
2016-09-22T10:09:39.803Z,265
2016-09-22T10:10:50.097Z,265
2016-09-22T10:12:00.383Z,265
2016-09-22T10:13:10.695Z,270
2016-09-22T10:14:20.992Z,280
2016-09-22T10:15:30.977Z,275
2016-09-22T10:16:41.279Z,275
2016-09-22T10:17:51.275Z,270
2016-09-22T10:19:01.258Z,270
2016-09-22T10:20:11.301Z,275
2016-09-22T10:21:21.590Z,270
2016-09-22T10:22:31.573Z,270
2016-09-22T10:23:41.870Z,275
2016-09-22T10:24:51.867Z,280
2016-09-22T10:26:01.235Z,280
2016-09-22T10:27:11.529Z,280
2016-09-22T10:28:21.807Z,280
2016-09-22T10:29:32.104Z,285
2016-09-22T10:30:42.100Z,285
2016-09-22T10:31:52.402Z,285
2016-09-22T10:33:02.424Z,290
2016-09-22T10:34:11.825Z,250
2016-09-22T10:35:21.518Z,275
2016-09-22T10:36:30.875Z,280
2016-09-22T10:37:40.856Z,150
2016-09-22T10:38:50.547Z,150
2016-09-22T10:40:00.825Z,145
2016-09-22T10:41:10.825Z,145
2016-09-22T10:42:21.117Z,145
2016-09-22T10:43:31.409Z,145
2016-09-22T10:44:41.421Z,145
2016-09-22T10:45:51.703Z,150
2016-09-22T10:47:01.384Z,150
2016-09-22T10:48:11.382Z,160
2016-09-22T10:49:21.368Z,170
2016-09-22T10:50:31.369Z,180
2016-09-22T10:51:41.357Z,275
2016-09-22T10:52:51.662Z,335
2016-09-22T10:54:01.976Z,330
2016-09-22T10:55:11.967Z,325
2016-09-22T10:56:22.256Z,320
2016-09-22T10:57:31.626Z,225
2016-09-22T10:58:41.927Z,325
2016-09-22T10:59:52.220Z,195
2016-09-22T11:01:02.204Z,235
2016-09-22T11:02:12.491Z,305
2016-09-22T11:03:22.491Z,265
2016-09-22T11:04:32.792Z,300
2016-09-22T11:05:42.786Z,295
2016-09-22T11:06:53.101Z,165
2016-09-22T11:08:03.097Z,160
2016-09-22T11:09:13.075Z,155
2016-09-22T11:10:23.056Z,160
2016-09-22T11:11:33.352Z,165
2016-09-22T11:12:43.021Z,170
2016-09-22T11:13:52.693Z,175
2016-09-22T11:15:02.670Z,175
2016-09-22T11:16:12.972Z,185
2016-09-22T11:17:23.249Z,315
2016-09-22T11:18:33.565Z,320
2016-09-22T11:19:43.544Z,325
2016-09-22T11:20:53.849Z,325
2016-09-22T11:22:03.830Z,325
2016-09-22T11:23:14.131Z,325
2016-09-22T11:24:24.128Z,330
2016-09-22T11:25:34.409Z,335
2016-09-22T11:26:44.087Z,340
2016-09-22T11:27:54.080Z,335
2016-09-22T11:29:04.377Z,330
2016-09-22T11:30:13.768Z,295
2016-09-22T11:31:24.049Z,300
2016-09-22T11:32:34.340Z,270
2016-09-22T11:33:44.331Z,165
2016-09-22T11:34:54.313Z,160
2016-09-22T11:36:04.295Z,160
2016-09-22T11:37:13.966Z,185
2016-09-22T11:38:23.642Z,230
2016-09-22T11:39:33.935Z,300
2016-09-22T11:40:43.922Z,295
2016-09-22T11:41:54.213Z,300
2016-09-22T11:43:04.192Z,185
2016-09-22T11:44:14.177Z,295
2016-09-22T11:45:24.486Z,295
2016-09-22T11:46:34.465Z,290
2016-09-22T11:47:44.444Z,290
2016-09-22T11:48:54.440Z,290
2016-09-22T11:50:04.722Z,190
2016-09-22T11:51:14.715Z,220
2016-09-22T11:52:25.001Z,250
2016-09-22T11:53:35.292Z,255
2016-09-22T11:54:45.291Z,300
2016-09-22T11:55:55.603Z,295
2016-09-22T11:57:05.591Z,295
2016-09-22T11:58:15.580Z,295
2016-09-22T11:59:25.871Z,295
2016-09-22T12:00:36.185Z,300
2016-09-22T12:01:45.866Z,300
2016-09-22T12:02:56.148Z,290
2016-09-22T12:04:06.144Z,270
2016-09-22T12:05:16.140Z,145
2016-09-22T12:06:26.142Z,140
2016-09-22T12:07:36.135Z,140
2016-09-22T12:08:45.813Z,140
2016-09-22T12:09:56.117Z,135
2016-09-22T12:11:06.108Z,130
2016-09-22T12:12:16.111Z,125
2016-09-22T12:13:26.101Z,125
2016-09-22T12:14:36.402Z,130
2016-09-22T12:15:46.758Z,140
2016-09-22T12:16:57.049Z,130
2016-09-22T12:18:07.040Z,140
2016-09-22T12:19:17.053Z,160
2016-09-22T12:20:27.586Z,190
2016-09-22T12:21:37.556Z,290
2016-09-22T12:22:47.853Z,270
2016-09-22T12:23:57.837Z,235
2016-09-22T12:25:07.498Z,250
2016-09-22T12:26:17.807Z,150
2016-09-22T12:27:27.800Z,155
2016-09-22T12:28:37.793Z,200
2016-09-22T12:29:47.473Z,155
2016-09-22T12:30:57.464Z,155
2016-09-22T12:32:07.776Z,295
2016-09-22T12:33:18.107Z,300
2016-09-22T12:34:28.098Z,300
2016-09-22T12:35:38.380Z,295
2016-09-22T12:36:48.670Z,290
2016-09-22T12:37:58.959Z,290
2016-09-22T12:39:09.273Z,295
2016-09-22T12:40:19.607Z,290
2016-09-22T12:41:29.602Z,285
2016-09-22T12:42:39.593Z,280
2016-09-22T12:43:49.595Z,275
2016-09-22T12:44:59.887Z,265
2016-09-22T12:46:08.936Z,180
2016-09-22T12:47:18.624Z,235
2016-09-22T12:48:28.612Z,255
2016-09-22T12:49:38.592Z,255
2016-09-22T12:50:48.275Z,215
2016-09-22T12:51:58.557Z,135
2016-09-22T12:53:08.552Z,125
2016-09-22T12:54:18.245Z,120
2016-09-22T12:55:28.237Z,200
2016-09-22T12:56:38.523Z,195
2016-09-22T12:57:48.495Z,150
2016-09-22T12:58:58.781Z,130
2016-09-22T13:00:08.779Z,245
2016-09-22T13:01:18.451Z,245
2016-09-22T13:02:28.736Z,250
2016-09-22T13:03:39.037Z,250
2016-09-22T13:04:49.021Z,255
2016-09-22T13:05:58.387Z,255
2016-09-22T13:07:08.683Z,255
2016-09-22T13:08:18.988Z,255
2016-09-22T13:09:29.277Z,250
2016-09-22T13:10:38.958Z,245
2016-09-22T13:11:49.265Z,235
2016-09-22T13:12:59.557Z,245
2016-09-22T13:14:09.544Z,245
2016-09-22T13:15:19.530Z,245
2016-09-22T13:16:29.834Z,240
2016-09-22T13:17:39.820Z,235
2016-09-22T13:18:50.121Z,230
2016-09-22T13:20:00.420Z,230
2016-09-22T13:21:10.724Z,230
2016-09-22T13:22:21.057Z,230
2016-09-22T13:23:31.363Z,230
2016-09-22T13:24:41.351Z,230
2016-09-22T13:25:51.658Z,230
2016-09-22T13:27:01.943Z,230
2016-09-22T13:28:11.962Z,230
2016-09-22T13:29:21.906Z,225
2016-09-22T13:30:31.897Z,225
2016-09-22T13:31:42.221Z,225
2016-09-22T13:32:52.229Z,225
2016-09-22T13:34:02.228Z,225
2016-09-22T13:35:12.531Z,225
2016-09-22T13:36:22.278Z,225
2016-09-22T13:37:32.272Z,225
2016-09-22T13:38:42.916Z,225
2016-09-22T13:39:52.867Z,220
2016-09-22T13:41:03.154Z,220
2016-09-22T13:42:12.825Z,220
2016-09-22T13:43:23.049Z,215
2016-09-22T13:44:33.034Z,215
2016-09-22T13:45:43.020Z,215
2016-09-22T13:46:52.382Z,215
2016-09-22T13:48:02.683Z,215
2016-09-22T13:49:12.670Z,215
2016-09-22T13:50:22.977Z,215
2016-09-22T13:51:32.676Z,215
2016-09-22T13:52:42.660Z,210
2016-09-22T13:53:52.963Z,210
2016-09-22T13:55:03.273Z,210
2016-09-22T13:56:13.581Z,210
2016-09-22T13:57:23.902Z,210
2016-09-22T13:58:33.904Z,210
2016-09-22T13:59:43.877Z,205
2016-09-22T14:00:54.198Z,205
2016-09-22T14:02:04.778Z,200
2016-09-22T14:03:15.135Z,200
2016-09-22T14:04:25.524Z,200
2016-09-22T14:05:35.573Z,200
2016-09-22T14:06:46.210Z,195
2016-09-22T14:07:56.173Z,200
2016-09-22T14:09:06.555Z,195
2016-09-22T14:10:16.607Z,195
2016-09-22T14:11:26.970Z,195
2016-09-22T14:12:36.686Z,195
2016-09-22T14:13:47.035Z,190
2016-09-22T14:14:57.399Z,190
2016-09-22T14:16:07.450Z,190
2016-09-22T14:17:17.487Z,190
2016-09-22T14:18:27.516Z,185
2016-09-22T14:19:37.891Z,185
2016-09-22T14:20:48.241Z,185
2016-09-22T14:21:58.595Z,185
2016-09-22T14:23:08.656Z,185
2016-09-22T14:24:18.677Z,185
2016-09-22T14:25:28.399Z,180
2016-09-22T14:26:38.462Z,180
2016-09-22T14:27:48.805Z,180
2016-09-22T14:28:59.148Z,175
2016-09-22T14:30:09.165Z,175
2016-09-22T14:31:19.521Z,170
2016-09-22T14:32:29.523Z,170
2016-09-22T14:33:39.838Z,170
2016-09-22T14:34:50.158Z,170
2016-09-22T14:36:00.465Z,170
2016-09-22T14:37:10.474Z,165
2016-09-22T14:38:20.152Z,165
2016-09-22T14:39:30.163Z,165
2016-09-22T14:40:40.160Z,165
2016-09-22T14:41:50.163Z,160
2016-09-22T14:43:00.168Z,160
2016-09-22T14:44:10.151Z,160
2016-09-22T14:45:20.446Z,155
2016-09-22T14:46:30.451Z,160
2016-09-22T14:47:40.740Z,155
2016-09-22T14:48:51.042Z,155
2016-09-22T14:50:00.428Z,150
2016-09-22T14:51:10.449Z,150
2016-09-22T14:52:20.757Z,150
2016-09-22T14:53:30.467Z,150
2016-09-22T14:54:40.773Z,150
2016-09-22T14:55:50.768Z,145
2016-09-22T14:57:00.776Z,140
2016-09-22T14:58:10.785Z,135
2016-09-22T14:59:21.101Z,135
2016-09-22T15:00:31.413Z,135
2016-09-22T15:01:41.720Z,130
2016-09-22T15:02:51.408Z,135
2016-09-22T15:04:01.101Z,135
2016-09-22T15:05:11.436Z,130
2016-09-22T15:06:21.427Z,130
2016-09-22T15:07:31.746Z,130
2016-09-22T15:08:42.058Z,125
2016-09-22T15:09:51.452Z,125
2016-09-22T15:11:01.441Z,125
2016-09-22T15:12:11.445Z,120
2016-09-22T15:13:21.774Z,120
2016-09-22T15:14:32.091Z,120
2016-09-22T15:15:42.069Z,115
2016-09-22T15:16:51.768Z,115
2016-09-22T15:18:02.083Z,115
2016-09-22T15:19:12.395Z,115
2016-09-22T15:20:22.688Z,110
2016-09-22T15:21:33.024Z,110
2016-09-22T15:22:43.326Z,105
2016-09-22T15:23:53.351Z,105
2016-09-22T15:25:03.351Z,105
2016-09-22T15:26:13.347Z,105
2016-09-22T15:27:23.342Z,105
2016-09-22T15:28:33.350Z,105
2016-09-22T15:29:42.756Z,100
2016-09-22T15:30:53.050Z,100
2016-09-22T15:32:03.361Z,100
2016-09-22T15:33:13.371Z,100
2016-09-22T15:34:23.677Z,100
2016-09-22T15:35:33.050Z,100
2016-09-22T15:36:43.368Z,100
2016-09-22T15:37:53.669Z,100
2016-09-22T15:39:03.664Z,95
2016-09-22T15:40:13.354Z,95
2016-09-22T15:41:23.661Z,95
2016-09-22T15:42:33.988Z,95
2016-09-22T15:43:44.300Z,90
2016-09-22T15:44:54.573Z,80
2016-09-22T15:46:04.891Z,80
2016-09-22T15:47:14.869Z,75
2016-09-22T15:48:24.566Z,75
2016-09-22T15:49:34.575Z,75
2016-09-22T15:50:44.883Z,75
2016-09-22T15:51:55.220Z,80
2016-09-22T15:53:05.235Z,80
2016-09-22T15:54:15.553Z,75
2016-09-22T15:55:25.892Z,75
2016-09-22T15:56:35.295Z,70
2016-09-22T15:57:45.598Z,70
2016-09-22T15:58:55.299Z,65
2016-09-22T16:00:05.599Z,65
2016-09-22T16:01:15.304Z,60
2016-09-22T16:02:25.327Z,60
2016-09-22T16:03:35.320Z,55
2016-09-22T16:04:45.617Z,55
2016-09-22T16:05:55.631Z,50
2016-09-22T16:07:05.937Z,45
2016-09-22T16:08:15.949Z,45
2016-09-22T16:09:26.242Z,45
2016-09-22T16:10:36.558Z,40
2016-09-22T16:11:46.560Z,40
2016-09-22T16:12:55.965Z,40
2016-09-22T16:14:05.968Z,35
2016-09-22T16:15:16.288Z,35
2016-09-22T16:16:26.605Z,35
2016-09-22T16:17:36.924Z,30
2016-09-22T16:18:46.919Z,30
2016-09-22T16:19:56.900Z,30
2016-09-22T16:21:07.218Z,30
2016-09-22T16:22:16.605Z,30
2016-09-22T16:23:26.608Z,30
2016-09-22T16:24:36.608Z,30
2016-09-22T16:25:46.616Z,30
2016-09-22T16:26:56.603Z,30
2016-09-22T16:28:06.293Z,25
2016-09-22T16:29:16.607Z,25
2016-09-22T16:30:26.626Z,25
2016-09-22T16:31:36.632Z,20
2016-09-22T16:32:46.852Z,20
2016-09-22T16:33:56.825Z,20
2016-09-22T16:35:06.820Z,20
2016-09-22T16:36:16.801Z,15
2016-09-22T16:37:27.100Z,15
2016-09-22T16:38:37.407Z,15
2016-09-22T16:39:47.732Z,15
2016-09-22T16:40:57.100Z,10
2016-09-22T16:42:07.419Z,10
2016-09-22T16:43:17.412Z,10
2016-09-22T16:44:27.406Z,10
2016-09-22T16:45:36.782Z,5
2016-09-22T16:46:46.752Z,5
2016-09-22T16:47:56.762Z,5
2016-09-22T16:49:07.076Z,5
2016-09-22T16:50:17.541Z,5
2016-09-22T16:51:27.872Z,5
2016-09-22T16:52:38.175Z,0
2016-09-22T16:53:48.479Z,0
2016-09-22T16:54:58.778Z,0
2016-09-22T16:56:09.103Z,0
2016-09-22T16:57:19.396Z,0
2016-09-22T16:58:29.417Z,0
2016-09-22T16:59:39.423Z,0